sensor_id;sensor_type;location;lat;lon;timestamp;pressure;altitude;pressure_sealevel;temperature;humidity
61761;BME280;47664;51.660;-0.100;2023-07-31T00:01:20;100174.30;;;16.98;66.13
61761;BME280;47664;51.660;-0.100;2023-07-31T00:03:47;100172.28;;;16.42;65.97
61761;BME280;47664;51.660;-0.100;2023-07-31T00:06:14;100169.98;;;17.24;65.71
61761;BME280;47664;51.660;-0.100;2023-07-31T00:08:41;100162.76;;;16.54;67.81
61761;BME280;47664;51.660;-0.100;2023-07-31T00:11:08;100163.52;;;16.72;67.67
61761;BME280;47664;51.660;-0.100;2023-07-31T00:13:36;100159.83;;;16.45;68.07
61761;BME280;47664;51.660;-0.100;2023-07-31T00:16:03;100152.47;;;16.38;68.53
61761;BME280;47664;51.660;-0.100;2023-07-31T00:18:30;100155.94;;;16.62;68.11
61761;BME280;47664;51.660;-0.100;2023-07-31T00:20:57;100146.97;;;16.38;69.81
61761;BME280;47664;51.660;-0.100;2023-07-31T00:23:24;100143.94;;;16.44;69.61
61761;BME280;47664;51.660;-0.100;2023-07-31T00:25:51;100141.80;;;16.43;69.28
61761;BME280;47664;51.660;-0.100;2023-07-31T00:28:18;100140.27;;;16.32;69.69
61761;BME280;47664;51.660;-0.100;2023-07-31T00:30:45;100136.50;;;16.12;70.29
61761;BME280;47664;51.660;-0.100;2023-07-31T00:33:13;100133.15;;;16.50;70.08
61761;BME280;47664;51.660;-0.100;2023-07-31T00:35:40;100127.77;;;16.55;70.83
61761;BME280;47664;51.660;-0.100;2023-07-31T00:38:07;100121.54;;;16.47;70.64
61761;BME280;47664;51.660;-0.100;2023-07-31T00:40:35;100112.69;;;16.43;70.55
61761;BME280;47664;51.660;-0.100;2023-07-31T00:43:02;100118.88;;;16.86;69.63
61761;BME280;47664;51.660;-0.100;2023-07-31T00:45:29;100104.66;;;16.31;70.57
61761;BME280;47664;51.660;-0.100;2023-07-31T00:47:56;100103.05;;;16.09;70.96
61761;BME280;47664;51.660;-0.100;2023-07-31T00:50:25;100102.48;;;16.63;70.78
61761;BME280;47664;51.660;-0.100;2023-07-31T00:52:52;100098.34;;;16.20;70.99
61761;BME280;47664;51.660;-0.100;2023-07-31T00:55:19;100099.35;;;16.18;70.99
61761;BME280;47664;51.660;-0.100;2023-07-31T00:57:46;100102.05;;;16.01;71.47
61761;BME280;47664;51.660;-0.100;2023-07-31T01:00:13;100099.15;;;16.02;72.14
61761;BME280;47664;51.660;-0.100;2023-07-31T01:02:40;100093.15;;;16.61;71.37
61761;BME280;47664;51.660;-0.100;2023-07-31T01:05:07;100089.50;;;16.15;71.92
61761;BME280;47664;51.660;-0.100;2023-07-31T01:07:42;100086.73;;;16.55;70.95
61761;BME280;47664;51.660;-0.100;2023-07-31T01:10:16;100088.86;;;16.61;70.37
61761;BME280;47664;51.660;-0.100;2023-07-31T01:12:46;100085.43;;;16.74;71.18
61761;BME280;47664;51.660;-0.100;2023-07-31T01:15:14;100084.51;;;16.36;71.17
61761;BME280;47664;51.660;-0.100;2023-07-31T01:17:42;100078.88;;;16.64;71.25
61761;BME280;47664;51.660;-0.100;2023-07-31T01:20:12;100073.88;;;16.17;71.23
61761;BME280;47664;51.660;-0.100;2023-07-31T01:25:00;100057.40;;;16.58;72.53
61761;BME280;47664;51.660;-0.100;2023-07-31T01:27:35;100055.90;;;16.36;71.94
61761;BME280;47664;51.660;-0.100;2023-07-31T01:30:09;100051.68;;;16.26;71.15
61761;BME280;47664;51.660;-0.100;2023-07-31T01:32:40;100048.49;;;16.25;71.45
61761;BME280;47664;51.660;-0.100;2023-07-31T01:35:09;100041.55;;;15.99;73.34
61761;BME280;47664;51.660;-0.100;2023-07-31T01:37:37;100033.73;;;16.36;71.63
61761;BME280;47664;51.660;-0.100;2023-07-31T01:40:06;100036.68;;;16.77;70.40
61761;BME280;47664;51.660;-0.100;2023-07-31T01:42:33;100030.59;;;16.92;70.02
61761;BME280;47664;51.660;-0.100;2023-07-31T01:45:00;100027.41;;;16.64;69.86
61761;BME280;47664;51.660;-0.100;2023-07-31T01:47:27;100021.69;;;16.85;70.67
61761;BME280;47664;51.660;-0.100;2023-07-31T01:49:54;100015.74;;;16.64;71.17
61761;BME280;47664;51.660;-0.100;2023-07-31T01:52:20;100012.15;;;16.99;70.68
61761;BME280;47664;51.660;-0.100;2023-07-31T01:54:47;100003.64;;;16.78;70.53
61761;BME280;47664;51.660;-0.100;2023-07-31T01:57:14;99998.26;;;16.77;70.25
61761;BME280;47664;51.660;-0.100;2023-07-31T01:59:41;99991.70;;;16.82;70.50
61761;BME280;47664;51.660;-0.100;2023-07-31T02:02:09;99995.65;;;16.80;71.50
61761;BME280;47664;51.660;-0.100;2023-07-31T02:04:36;99985.03;;;16.36;71.96
61761;BME280;47664;51.660;-0.100;2023-07-31T02:07:03;99989.69;;;16.48;71.92
61761;BME280;47664;51.660;-0.100;2023-07-31T02:09:30;99987.02;;;16.83;71.62
61761;BME280;47664;51.660;-0.100;2023-07-31T02:11:57;99983.58;;;16.77;71.08
61761;BME280;47664;51.660;-0.100;2023-07-31T02:14:24;99978.72;;;16.40;72.29
61761;BME280;47664;51.660;-0.100;2023-07-31T02:16:51;99976.26;;;16.92;71.65
61761;BME280;47664;51.660;-0.100;2023-07-31T02:19:18;99974.03;;;16.94;71.81
61761;BME280;47664;51.660;-0.100;2023-07-31T02:21:45;99972.31;;;16.37;72.05
61761;BME280;47664;51.660;-0.100;2023-07-31T02:24:11;99961.87;;;16.60;72.59
61761;BME280;47664;51.660;-0.100;2023-07-31T02:26:38;99971.33;;;16.46;73.77
61761;BME280;47664;51.660;-0.100;2023-07-31T02:29:05;99964.80;;;16.04;74.58
61761;BME280;47664;51.660;-0.100;2023-07-31T02:31:32;99959.46;;;16.14;74.71
61761;BME280;47664;51.660;-0.100;2023-07-31T02:33:59;99955.04;;;16.13;75.56
61761;BME280;47664;51.660;-0.100;2023-07-31T02:36:26;99950.48;;;16.32;74.17
61761;BME280;47664;51.660;-0.100;2023-07-31T02:38:53;99960.42;;;16.64;73.27
61761;BME280;47664;51.660;-0.100;2023-07-31T02:41:19;99961.96;;;16.61;73.48
61761;BME280;47664;51.660;-0.100;2023-07-31T02:43:46;99948.55;;;16.39;73.48
61761;BME280;47664;51.660;-0.100;2023-07-31T02:46:13;99949.72;;;16.33;73.88
61761;BME280;47664;51.660;-0.100;2023-07-31T02:48:40;99946.62;;;16.21;74.56
61761;BME280;47664;51.660;-0.100;2023-07-31T02:51:07;99933.09;;;16.26;74.08
61761;BME280;47664;51.660;-0.100;2023-07-31T02:53:34;99921.97;;;16.48;73.56
61761;BME280;47664;51.660;-0.100;2023-07-31T02:56:01;99918.61;;;16.05;73.68
61761;BME280;47664;51.660;-0.100;2023-07-31T02:58:28;99920.86;;;16.98;73.00
61761;BME280;47664;51.660;-0.100;2023-07-31T03:00:55;99914.62;;;16.68;72.40
61761;BME280;47664;51.660;-0.100;2023-07-31T03:03:22;99912.20;;;17.17;71.44
61761;BME280;47664;51.660;-0.100;2023-07-31T03:05:49;99914.63;;;16.99;71.24
61761;BME280;47664;51.660;-0.100;2023-07-31T03:08:15;99920.81;;;16.72;71.55
61761;BME280;47664;51.660;-0.100;2023-07-31T03:10:43;99923.70;;;16.46;73.82
61761;BME280;47664;51.660;-0.100;2023-07-31T03:13:10;99930.28;;;16.66;73.89
61761;BME280;47664;51.660;-0.100;2023-07-31T03:15:36;99931.74;;;16.48;73.64
61761;BME280;47664;51.660;-0.100;2023-07-31T03:18:03;99928.79;;;16.14;74.31
61761;BME280;47664;51.660;-0.100;2023-07-31T03:20:30;99927.58;;;17.10;72.65
61761;BME280;47664;51.660;-0.100;2023-07-31T03:22:58;99925.00;;;16.60;72.74
61761;BME280;47664;51.660;-0.100;2023-07-31T03:25:25;99920.49;;;16.98;73.04
61761;BME280;47664;51.660;-0.100;2023-07-31T03:27:52;99919.02;;;16.65;72.78
61761;BME280;47664;51.660;-0.100;2023-07-31T03:30:19;99915.95;;;16.72;72.32
61761;BME280;47664;51.660;-0.100;2023-07-31T03:32:45;99919.67;;;16.90;72.38
61761;BME280;47664;51.660;-0.100;2023-07-31T03:35:12;99917.07;;;16.77;72.23
61761;BME280;47664;51.660;-0.100;2023-07-31T03:37:39;99911.88;;;16.73;72.66
61761;BME280;47664;51.660;-0.100;2023-07-31T03:40:07;99909.78;;;16.58;73.22
61761;BME280;47664;51.660;-0.100;2023-07-31T03:42:34;99904.29;;;17.03;71.91
61761;BME280;47664;51.660;-0.100;2023-07-31T03:45:01;99903.43;;;16.48;73.32
61761;BME280;47664;51.660;-0.100;2023-07-31T03:47:29;99901.27;;;16.53;73.20
61761;BME280;47664;51.660;-0.100;2023-07-31T03:49:56;99894.51;;;16.84;73.06
61761;BME280;47664;51.660;-0.100;2023-07-31T03:52:23;99898.85;;;16.93;73.14
61761;BME280;47664;51.660;-0.100;2023-07-31T03:54:49;99902.46;;;16.70;72.42
61761;BME280;47664;51.660;-0.100;2023-07-31T03:57:16;99905.64;;;17.11;71.87
61761;BME280;47664;51.660;-0.100;2023-07-31T03:59:44;99897.95;;;17.13;71.73
61761;BME280;47664;51.660;-0.100;2023-07-31T04:02:11;99892.56;;;16.99;72.56
61761;BME280;47664;51.660;-0.100;2023-07-31T04:04:38;99885.97;;;17.00;72.23
61761;BME280;47664;51.660;-0.100;2023-07-31T04:07:05;99888.89;;;17.04;72.16
61761;BME280;47664;51.660;-0.100;2023-07-31T04:09:32;99888.72;;;16.80;72.67
61761;BME280;47664;51.660;-0.100;2023-07-31T04:11:59;99894.72;;;17.12;71.97
61761;BME280;47664;51.660;-0.100;2023-07-31T04:14:26;99894.76;;;16.90;72.41
61761;BME280;47664;51.660;-0.100;2023-07-31T04:16:53;99895.45;;;16.55;73.47
61761;BME280;47664;51.660;-0.100;2023-07-31T04:19:20;99897.66;;;17.03;73.14
61761;BME280;47664;51.660;-0.100;2023-07-31T04:21:46;99902.47;;;16.36;73.04
61761;BME280;47664;51.660;-0.100;2023-07-31T04:24:13;99898.52;;;16.75;72.75
61761;BME280;47664;51.660;-0.100;2023-07-31T04:26:40;99900.58;;;17.08;72.56
61761;BME280;47664;51.660;-0.100;2023-07-31T04:29:07;99896.54;;;17.43;71.77
61761;BME280;47664;51.660;-0.100;2023-07-31T04:31:34;99890.75;;;17.50;71.31
61761;BME280;47664;51.660;-0.100;2023-07-31T04:34:01;99882.35;;;17.09;71.43
61761;BME280;47664;51.660;-0.100;2023-07-31T04:36:27;99883.94;;;16.80;72.85
61761;BME280;47664;51.660;-0.100;2023-07-31T04:38:54;99883.22;;;17.13;72.44
61761;BME280;47664;51.660;-0.100;2023-07-31T04:41:21;99886.23;;;17.36;72.24
61761;BME280;47664;51.660;-0.100;2023-07-31T04:43:48;99883.71;;;16.96;71.78
61761;BME280;47664;51.660;-0.100;2023-07-31T04:46:15;99886.64;;;17.31;71.75
61761;BME280;47664;51.660;-0.100;2023-07-31T04:48:43;99880.10;;;17.16;72.36
61761;BME280;47664;51.660;-0.100;2023-07-31T04:51:10;99880.81;;;17.04;72.04
61761;BME280;47664;51.660;-0.100;2023-07-31T04:53:37;99875.94;;;17.25;71.71
61761;BME280;47664;51.660;-0.100;2023-07-31T04:56:05;99878.03;;;17.37;71.96
61761;BME280;47664;51.660;-0.100;2023-07-31T04:58:32;99874.88;;;17.04;72.88
61761;BME280;47664;51.660;-0.100;2023-07-31T05:00:59;99876.04;;;17.09;72.48
61761;BME280;47664;51.660;-0.100;2023-07-31T05:03:25;99875.56;;;17.35;71.69
61761;BME280;47664;51.660;-0.100;2023-07-31T05:05:52;99877.29;;;17.43;71.31
61761;BME280;47664;51.660;-0.100;2023-07-31T05:08:20;99880.96;;;17.35;71.59
61761;BME280;47664;51.660;-0.100;2023-07-31T05:10:47;99878.22;;;16.63;71.74
61761;BME280;47664;51.660;-0.100;2023-07-31T05:13:14;99878.98;;;17.52;71.26
61761;BME280;47664;51.660;-0.100;2023-07-31T05:15:41;99877.23;;;17.43;71.97
61761;BME280;47664;51.660;-0.100;2023-07-31T05:18:08;99877.49;;;17.51;71.44
61761;BME280;47664;51.660;-0.100;2023-07-31T05:20:35;99879.40;;;17.03;72.54
61761;BME280;47664;51.660;-0.100;2023-07-31T05:23:02;99872.59;;;16.91;72.62
61761;BME280;47664;51.660;-0.100;2023-07-31T05:25:29;99876.08;;;16.98;73.20
61761;BME280;47664;51.660;-0.100;2023-07-31T05:27:55;99873.91;;;17.27;72.46
61761;BME280;47664;51.660;-0.100;2023-07-31T05:30:22;99873.62;;;17.44;71.94
61761;BME280;47664;51.660;-0.100;2023-07-31T05:32:50;99868.25;;;17.19;71.95
61761;BME280;47664;51.660;-0.100;2023-07-31T05:35:17;99873.68;;;17.35;71.95
61761;BME280;47664;51.660;-0.100;2023-07-31T05:37:44;99875.56;;;17.15;72.55
61761;BME280;47664;51.660;-0.100;2023-07-31T05:40:11;99879.89;;;17.21;71.61
61761;BME280;47664;51.660;-0.100;2023-07-31T05:42:38;99878.19;;;17.33;72.72
61761;BME280;47664;51.660;-0.100;2023-07-31T05:45:06;99880.55;;;17.03;73.20
61761;BME280;47664;51.660;-0.100;2023-07-31T05:47:34;99879.16;;;17.63;72.47
61761;BME280;47664;51.660;-0.100;2023-07-31T05:50:01;99878.50;;;17.35;72.46
61761;BME280;47664;51.660;-0.100;2023-07-31T05:52:27;99881.20;;;17.65;71.77
61761;BME280;47664;51.660;-0.100;2023-07-31T05:54:54;99880.76;;;17.50;72.13
61761;BME280;47664;51.660;-0.100;2023-07-31T05:57:21;99883.11;;;17.52;72.83
61761;BME280;47664;51.660;-0.100;2023-07-31T05:59:49;99889.13;;;16.77;73.30
61761;BME280;47664;51.660;-0.100;2023-07-31T06:02:16;99889.24;;;17.29;73.71
61761;BME280;47664;51.660;-0.100;2023-07-31T06:04:43;99885.03;;;17.08;73.54
61761;BME280;47664;51.660;-0.100;2023-07-31T06:07:10;99880.15;;;17.00;73.72
61761;BME280;47664;51.660;-0.100;2023-07-31T06:09:37;99879.09;;;16.91;74.20
61761;BME280;47664;51.660;-0.100;2023-07-31T06:12:05;99876.52;;;16.78;74.29
61761;BME280;47664;51.660;-0.100;2023-07-31T06:14:32;99876.40;;;17.19;73.96
61761;BME280;47664;51.660;-0.100;2023-07-31T06:16:59;99873.91;;;17.22;73.84
61761;BME280;47664;51.660;-0.100;2023-07-31T06:19:25;99873.99;;;17.30;73.42
61761;BME280;47664;51.660;-0.100;2023-07-31T06:21:52;99880.95;;;17.09;73.88
61761;BME280;47664;51.660;-0.100;2023-07-31T06:24:19;99878.46;;;17.55;73.51
61761;BME280;47664;51.660;-0.100;2023-07-31T06:26:46;99880.40;;;17.09;73.09
61761;BME280;47664;51.660;-0.100;2023-07-31T06:29:14;99878.56;;;17.87;71.87
61761;BME280;47664;51.660;-0.100;2023-07-31T06:31:41;99881.42;;;17.70;72.13
61761;BME280;47664;51.660;-0.100;2023-07-31T06:34:07;99881.05;;;18.11;71.33
61761;BME280;47664;51.660;-0.100;2023-07-31T06:36:34;99883.24;;;18.05;71.93
61761;BME280;47664;51.660;-0.100;2023-07-31T06:39:01;99885.50;;;17.98;71.91
61761;BME280;47664;51.660;-0.100;2023-07-31T06:41:29;99878.12;;;18.18;70.63
61761;BME280;47664;51.660;-0.100;2023-07-31T06:43:56;99871.36;;;18.06;71.20
61761;BME280;47664;51.660;-0.100;2023-07-31T06:46:22;99866.47;;;17.60;72.51
61761;BME280;47664;51.660;-0.100;2023-07-31T06:48:49;99864.79;;;17.64;72.01
61761;BME280;47664;51.660;-0.100;2023-07-31T06:51:16;99860.71;;;18.27;70.68
61761;BME280;47664;51.660;-0.100;2023-07-31T06:53:43;99856.86;;;18.76;69.18
61761;BME280;47664;51.660;-0.100;2023-07-31T06:56:11;99858.29;;;18.58;69.45
61761;BME280;47664;51.660;-0.100;2023-07-31T06:58:37;99861.14;;;18.61;69.78
61761;BME280;47664;51.660;-0.100;2023-07-31T07:01:04;99860.51;;;18.30;69.94
61761;BME280;47664;51.660;-0.100;2023-07-31T07:03:32;99858.13;;;18.80;69.66
61761;BME280;47664;51.660;-0.100;2023-07-31T07:05:59;99856.12;;;18.76;69.66
61761;BME280;47664;51.660;-0.100;2023-07-31T07:08:27;99854.26;;;18.28;69.76
61761;BME280;47664;51.660;-0.100;2023-07-31T07:10:53;99848.00;;;18.27;69.49
61761;BME280;47664;51.660;-0.100;2023-07-31T07:13:21;99849.49;;;18.88;68.77
61761;BME280;47664;51.660;-0.100;2023-07-31T07:15:48;99846.51;;;17.77;69.56
61761;BME280;47664;51.660;-0.100;2023-07-31T07:18:16;99841.16;;;18.56;69.65
61761;BME280;47664;51.660;-0.100;2023-07-31T07:20:47;99838.05;;;18.47;69.47
61761;BME280;47664;51.660;-0.100;2023-07-31T07:23:14;99832.20;;;18.62;69.01
61761;BME280;47664;51.660;-0.100;2023-07-31T07:25:41;99836.54;;;18.62;68.60
61761;BME280;47664;51.660;-0.100;2023-07-31T07:28:08;99834.55;;;18.68;68.23
61761;BME280;47664;51.660;-0.100;2023-07-31T07:30:36;99837.67;;;18.58;68.56
61761;BME280;47664;51.660;-0.100;2023-07-31T07:33:04;99832.99;;;18.55;68.46
61761;BME280;47664;51.660;-0.100;2023-07-31T07:35:33;99833.57;;;18.40;69.85
61761;BME280;47664;51.660;-0.100;2023-07-31T07:38:01;99828.98;;;18.51;68.82
61761;BME280;47664;51.660;-0.100;2023-07-31T07:40:28;99826.09;;;18.59;68.43
61761;BME280;47664;51.660;-0.100;2023-07-31T07:42:55;99832.98;;;18.41;68.93
61761;BME280;47664;51.660;-0.100;2023-07-31T07:45:22;99843.67;;;18.43;68.78
61761;BME280;47664;51.660;-0.100;2023-07-31T07:47:49;99846.22;;;18.09;68.94
61761;BME280;47664;51.660;-0.100;2023-07-31T07:50:16;99840.46;;;18.34;69.26
61761;BME280;47664;51.660;-0.100;2023-07-31T07:52:44;99831.75;;;18.39;68.90
61761;BME280;47664;51.660;-0.100;2023-07-31T07:55:11;99832.88;;;18.70;68.41
61761;BME280;47664;51.660;-0.100;2023-07-31T07:57:39;99829.46;;;18.51;68.73
61761;BME280;47664;51.660;-0.100;2023-07-31T08:00:07;99832.61;;;18.45;68.61
61761;BME280;47664;51.660;-0.100;2023-07-31T08:02:34;99832.60;;;18.53;69.11
61761;BME280;47664;51.660;-0.100;2023-07-31T08:05:01;99834.13;;;18.58;69.02
61761;BME280;47664;51.660;-0.100;2023-07-31T08:07:28;99814.73;;;18.81;68.38
61761;BME280;47664;51.660;-0.100;2023-07-31T08:09:56;99799.67;;;18.37;67.99
61761;BME280;47664;51.660;-0.100;2023-07-31T08:12:23;99790.82;;;18.48;68.87
61761;BME280;47664;51.660;-0.100;2023-07-31T08:14:50;99795.01;;;18.15;68.58
61761;BME280;47664;51.660;-0.100;2023-07-31T08:17:17;99797.05;;;18.43;68.15
61761;BME280;47664;51.660;-0.100;2023-07-31T08:19:44;99803.35;;;18.18;68.91
61761;BME280;47664;51.660;-0.100;2023-07-31T08:22:11;99805.64;;;18.23;68.52
61761;BME280;47664;51.660;-0.100;2023-07-31T08:24:38;99807.52;;;18.50;68.75
61761;BME280;47664;51.660;-0.100;2023-07-31T08:27:07;99812.75;;;18.64;68.27
61761;BME280;47664;51.660;-0.100;2023-07-31T08:29:34;99812.97;;;18.83;67.88
61761;BME280;47664;51.660;-0.100;2023-07-31T08:32:02;99812.47;;;18.78;67.58
61761;BME280;47664;51.660;-0.100;2023-07-31T08:34:29;99808.67;;;18.80;67.19
61761;BME280;47664;51.660;-0.100;2023-07-31T08:36:57;99814.57;;;17.96;68.83
61761;BME280;47664;51.660;-0.100;2023-07-31T08:39:25;99807.33;;;18.19;69.65
61761;BME280;47664;51.660;-0.100;2023-07-31T08:41:58;99795.93;;;18.27;68.84
61761;BME280;47664;51.660;-0.100;2023-07-31T08:44:25;99791.83;;;18.67;68.58
61761;BME280;47664;51.660;-0.100;2023-07-31T08:46:52;99791.26;;;18.33;69.26
61761;BME280;47664;51.660;-0.100;2023-07-31T08:49:20;99788.66;;;18.82;68.62
61761;BME280;47664;51.660;-0.100;2023-07-31T08:51:50;99786.12;;;18.29;68.20
61761;BME280;47664;51.660;-0.100;2023-07-31T08:54:19;99788.08;;;19.04;67.16
61761;BME280;47664;51.660;-0.100;2023-07-31T08:56:46;99788.50;;;18.88;67.25
61761;BME280;47664;51.660;-0.100;2023-07-31T08:59:15;99785.63;;;18.91;67.19
61761;BME280;47664;51.660;-0.100;2023-07-31T09:01:46;99791.10;;;18.45;67.46
61761;BME280;47664;51.660;-0.100;2023-07-31T09:04:16;99799.10;;;18.65;67.56
61761;BME280;47664;51.660;-0.100;2023-07-31T09:06:46;99798.77;;;18.54;66.84
61761;BME280;47664;51.660;-0.100;2023-07-31T09:09:14;99796.62;;;18.86;66.90
61761;BME280;47664;51.660;-0.100;2023-07-31T09:11:41;99795.70;;;18.60;67.68
61761;BME280;47664;51.660;-0.100;2023-07-31T09:14:10;99792.33;;;18.60;67.45
61761;BME280;47664;51.660;-0.100;2023-07-31T09:16:52;99794.94;;;18.66;67.78
61761;BME280;47664;51.660;-0.100;2023-07-31T09:19:25;99793.10;;;18.79;67.99
61761;BME280;47664;51.660;-0.100;2023-07-31T09:21:53;99797.77;;;18.67;67.80
61761;BME280;47664;51.660;-0.100;2023-07-31T09:24:26;99801.95;;;18.42;68.76
61761;BME280;47664;51.660;-0.100;2023-07-31T09:26:54;99798.70;;;18.81;68.20
61761;BME280;47664;51.660;-0.100;2023-07-31T09:29:21;99791.79;;;19.07;68.04
61761;BME280;47664;51.660;-0.100;2023-07-31T09:31:48;99791.72;;;18.41;68.06
61761;BME280;47664;51.660;-0.100;2023-07-31T09:34:16;99781.51;;;18.85;67.71
61761;BME280;47664;51.660;-0.100;2023-07-31T09:36:45;99770.54;;;19.02;67.54
61761;BME280;47664;51.660;-0.100;2023-07-31T09:39:14;99761.07;;;18.94;67.93
61761;BME280;47664;51.660;-0.100;2023-07-31T09:41:43;99752.65;;;19.30;67.21
61761;BME280;47664;51.660;-0.100;2023-07-31T09:44:11;99745.43;;;19.25;67.06
61761;BME280;47664;51.660;-0.100;2023-07-31T09:46:38;99740.17;;;19.72;66.87
61761;BME280;47664;51.660;-0.100;2023-07-31T09:49:07;99748.43;;;19.40;67.02
61761;BME280;47664;51.660;-0.100;2023-07-31T09:51:35;99751.49;;;19.56;67.40
61761;BME280;47664;51.660;-0.100;2023-07-31T09:54:02;99753.22;;;19.67;66.98
61761;BME280;47664;51.660;-0.100;2023-07-31T09:56:30;99747.54;;;19.53;66.89
61761;BME280;47664;51.660;-0.100;2023-07-31T09:58:58;99740.17;;;19.47;66.31
61761;BME280;47664;51.660;-0.100;2023-07-31T10:01:25;99744.90;;;19.34;67.06
61761;BME280;47664;51.660;-0.100;2023-07-31T10:03:52;99741.67;;;19.47;65.76
61761;BME280;47664;51.660;-0.100;2023-07-31T10:06:20;99745.06;;;19.26;66.28
61761;BME280;47664;51.660;-0.100;2023-07-31T10:08:47;99755.11;;;18.90;66.58
61761;BME280;47664;51.660;-0.100;2023-07-31T10:11:19;99750.62;;;19.08;66.93
61761;BME280;47664;51.660;-0.100;2023-07-31T10:13:47;99742.90;;;18.06;68.10
61761;BME280;47664;51.660;-0.100;2023-07-31T10:16:16;99744.35;;;18.81;67.95
61761;BME280;47664;51.660;-0.100;2023-07-31T10:18:44;99746.93;;;18.71;67.83
61761;BME280;47664;51.660;-0.100;2023-07-31T10:21:12;99743.71;;;19.16;67.38
61761;BME280;47664;51.660;-0.100;2023-07-31T10:23:41;99737.22;;;18.85;67.45
61761;BME280;47664;51.660;-0.100;2023-07-31T10:26:10;99748.41;;;18.72;67.66
61761;BME280;47664;51.660;-0.100;2023-07-31T10:28:39;99762.92;;;18.55;69.37
61761;BME280;47664;51.660;-0.100;2023-07-31T10:31:06;99763.24;;;18.22;70.13
61761;BME280;47664;51.660;-0.100;2023-07-31T10:33:34;99769.78;;;17.91;70.68
61761;BME280;47664;51.660;-0.100;2023-07-31T10:36:13;99776.30;;;17.54;71.57
61761;BME280;47664;51.660;-0.100;2023-07-31T10:38:40;99784.70;;;17.38;72.04
61761;BME280;47664;51.660;-0.100;2023-07-31T10:41:08;99766.57;;;17.94;71.02
61761;BME280;47664;51.660;-0.100;2023-07-31T10:43:36;99759.12;;;18.36;70.27
61761;BME280;47664;51.660;-0.100;2023-07-31T10:46:07;99759.29;;;18.41;69.11
61761;BME280;47664;51.660;-0.100;2023-07-31T10:48:35;99771.33;;;18.34;68.88
61761;BME280;47664;51.660;-0.100;2023-07-31T10:51:07;99779.12;;;18.25;69.24
61761;BME280;47664;51.660;-0.100;2023-07-31T10:53:34;99780.29;;;18.67;69.53
61761;BME280;47664;51.660;-0.100;2023-07-31T10:56:03;99783.67;;;18.46;68.74
61761;BME280;47664;51.660;-0.100;2023-07-31T10:58:32;99776.68;;;18.30;69.64
61761;BME280;47664;51.660;-0.100;2023-07-31T11:01:00;99778.17;;;18.66;67.84
61761;BME280;47664;51.660;-0.100;2023-07-31T11:03:42;99767.38;;;18.86;67.27
61761;BME280;47664;51.660;-0.100;2023-07-31T11:06:10;99760.32;;;18.67;66.69
61761;BME280;47664;51.660;-0.100;2023-07-31T11:08:42;99750.29;;;18.78;66.81
61761;BME280;47664;51.660;-0.100;2023-07-31T11:11:11;99736.70;;;18.96;66.06
61761;BME280;47664;51.660;-0.100;2023-07-31T11:13:41;99728.23;;;18.77;65.18
61761;BME280;47664;51.660;-0.100;2023-07-31T11:16:10;99727.33;;;19.03;64.42
61761;BME280;47664;51.660;-0.100;2023-07-31T11:18:40;99725.74;;;18.82;64.51
61761;BME280;47664;51.660;-0.100;2023-07-31T11:21:07;99725.66;;;18.53;64.09
61761;BME280;47664;51.660;-0.100;2023-07-31T11:23:37;99724.67;;;18.88;63.70
61761;BME280;47664;51.660;-0.100;2023-07-31T11:26:05;99740.25;;;18.73;64.89
61761;BME280;47664;51.660;-0.100;2023-07-31T11:28:33;99750.63;;;18.67;65.59
61761;BME280;47664;51.660;-0.100;2023-07-31T11:31:02;99745.98;;;18.43;64.36
61761;BME280;47664;51.660;-0.100;2023-07-31T11:33:29;99733.68;;;18.59;64.87
61761;BME280;47664;51.660;-0.100;2023-07-31T11:35:56;99745.41;;;18.22;64.19
61761;BME280;47664;51.660;-0.100;2023-07-31T11:38:25;99737.16;;;18.29;64.63
61761;BME280;47664;51.660;-0.100;2023-07-31T11:40:54;99730.36;;;18.36;64.40
61761;BME280;47664;51.660;-0.100;2023-07-31T11:43:22;99725.16;;;18.99;63.89
61761;BME280;47664;51.660;-0.100;2023-07-31T11:45:50;99719.52;;;18.85;63.14
61761;BME280;47664;51.660;-0.100;2023-07-31T11:48:20;99723.05;;;18.43;63.79
61761;BME280;47664;51.660;-0.100;2023-07-31T11:50:49;99727.74;;;18.36;63.73
61761;BME280;47664;51.660;-0.100;2023-07-31T11:53:19;99730.30;;;18.58;64.04
61761;BME280;47664;51.660;-0.100;2023-07-31T11:55:48;99725.82;;;18.36;62.87
61761;BME280;47664;51.660;-0.100;2023-07-31T11:58:16;99736.32;;;19.00;62.91
61761;BME280;47664;51.660;-0.100;2023-07-31T12:00:45;99742.09;;;18.86;62.62
61761;BME280;47664;51.660;-0.100;2023-07-31T12:03:13;99744.13;;;19.09;63.04
61761;BME280;47664;51.660;-0.100;2023-07-31T12:05:40;99738.36;;;18.50;64.14
61761;BME280;47664;51.660;-0.100;2023-07-31T12:08:11;99741.09;;;18.56;63.56
61761;BME280;47664;51.660;-0.100;2023-07-31T12:10:39;99740.74;;;18.40;63.73
61761;BME280;47664;51.660;-0.100;2023-07-31T12:13:08;99747.93;;;18.25;64.41
61761;BME280;47664;51.660;-0.100;2023-07-31T12:15:40;99749.41;;;18.40;63.32
61761;BME280;47664;51.660;-0.100;2023-07-31T12:18:10;99742.72;;;18.36;61.79
61761;BME280;47664;51.660;-0.100;2023-07-31T12:20:43;99735.52;;;18.33;61.02
61761;BME280;47664;51.660;-0.100;2023-07-31T12:23:15;99732.00;;;18.05;61.54
61761;BME280;47664;51.660;-0.100;2023-07-31T12:25:43;99732.97;;;18.56;60.65
61761;BME280;47664;51.660;-0.100;2023-07-31T12:28:11;99736.17;;;18.04;61.28
61761;BME280;47664;51.660;-0.100;2023-07-31T12:30:39;99737.22;;;18.36;60.18
61761;BME280;47664;51.660;-0.100;2023-07-31T12:33:12;99740.57;;;17.92;60.08
61761;BME280;47664;51.660;-0.100;2023-07-31T12:35:41;99738.03;;;18.21;60.68
61761;BME280;47664;51.660;-0.100;2023-07-31T12:38:09;99733.59;;;17.60;61.50
61761;BME280;47664;51.660;-0.100;2023-07-31T12:40:38;99727.60;;;17.96;60.62
61761;BME280;47664;51.660;-0.100;2023-07-31T12:43:05;99728.69;;;18.20;60.63
61761;BME280;47664;51.660;-0.100;2023-07-31T12:45:33;99722.43;;;18.41;59.49
61761;BME280;47664;51.660;-0.100;2023-07-31T12:48:01;99721.18;;;17.72;61.01
61761;BME280;47664;51.660;-0.100;2023-07-31T12:50:28;99717.71;;;17.86;59.96
61761;BME280;47664;51.660;-0.100;2023-07-31T12:52:57;99717.05;;;17.74;59.96